Time;durP1;ratioP1;P1;durP2;ratioP2;P2;SDS_P1;SDS_P2;PMS_P1;PMS_P2;Temp;Humidity;BMP_temperature;BMP_pressure;BME280_temperature;BME280_humidity;BME280_pressure;Samples;Min_cycle;Max_cycle;Signal;HPM_P1;HPM_P2
2022/10/13 00:00:30;;;;;;;;;;;19.90;99.90;;;;;;5028739;28;20233;-66
2022/10/13 00:03:00;;;;;;;;;;;19.90;99.90;;;;;;5025708;28;19935;-66
2022/10/13 00:05:28;;;;;;;;;;;19.90;99.90;;;;;;5030302;28;19948;-68
2022/10/13 00:07:56;;;;;;;;;;;19.90;99.90;;;;;;5028476;28;19929;-66
2022/10/13 00:10:23;;;;;;;;;;;19.90;99.90;;;;;;5032555;28;20450;-68
2022/10/13 00:12:51;;;;;;;;;;;19.90;99.90;;;;;;5040644;28;19930;-67
2022/10/13 00:15:21;;;;;;;;;;;19.90;99.90;;;;;;5032414;28;19929;-68
2022/10/13 00:17:48;;;;;;;;;;;19.90;99.90;;;;;;5029430;28;20393;-67
2022/10/13 00:20:15;;;;;;;;;;;19.90;99.90;;;;;;5033786;28;19929;-67
2022/10/13 00:22:42;;;;;;;;;;;19.90;99.90;;;;;;5033003;28;19929;-66
2022/10/13 00:25:09;;;;;;;;;;;19.90;99.90;;;;;;5025480;28;20400;-70
2022/10/13 00:27:36;;;;;;;;;;;19.80;99.90;;;;;;5028479;28;19933;-68
2022/10/13 00:30:04;;;;;;;;;;;19.90;99.90;;;;;;5031130;28;19925;-67
2022/10/13 00:32:31;;;;;;;;;;;19.90;99.90;;;;;;5025760;28;20411;-68
2022/10/13 00:34:58;;;;;;;;;;;19.80;99.90;;;;;;5035021;28;20388;-68
2022/10/13 00:37:25;;;;;;;;;;;19.80;99.90;;;;;;5036540;28;19930;-66
2022/10/13 00:39:52;;;;;;;;;;;19.80;99.90;;;;;;5032953;28;19931;-68
2022/10/13 00:42:25;;;;;;;;;;;19.80;99.90;;;;;;5028355;28;19929;-67
2022/10/13 00:45:04;;;;;;;;;;;19.80;99.90;;;;;;5019042;28;20400;-66
2022/10/13 00:47:40;;;;;;;;;;;19.80;99.90;;;;;;5036331;28;19933;-66
2022/10/13 00:50:09;;;;;;;;;;;19.80;99.90;;;;;;5024413;28;19933;-66
2022/10/13 00:52:37;;;;;;;;;;;19.80;99.90;;;;;;5031803;28;19935;-66
2022/10/13 00:55:05;;;;;;;;;;;19.70;99.90;;;;;;5034593;28;19952;-66
2022/10/13 00:57:32;;;;;;;;;;;19.80;99.90;;;;;;5031427;28;19929;-66
2022/10/13 00:59:59;;;;;;;;;;;19.70;99.90;;;;;;5023938;28;19936;-66
2022/10/13 01:02:30;;;;;;;;;;;19.70;99.90;;;;;;5030325;28;19933;-67
2022/10/13 01:04:57;;;;;;;;;;;19.70;99.90;;;;;;5025399;28;19936;-66
2022/10/13 01:07:25;;;;;;;;;;;19.70;99.90;;;;;;5031029;28;19925;-67
2022/10/13 01:09:52;;;;;;;;;;;19.70;99.90;;;;;;5025821;28;20536;-65
2022/10/13 01:12:19;;;;;;;;;;;19.70;99.90;;;;;;5026812;28;20396;-67
2022/10/13 01:14:51;;;;;;;;;;;19.70;99.90;;;;;;5034528;28;19936;-66
2022/10/13 01:17:37;;;;;;;;;;;19.70;99.90;;;;;;5027804;28;20396;-66
2022/10/13 01:20:14;;;;;;;;;;;19.70;99.90;;;;;;5019343;28;19929;-67
2022/10/13 01:22:44;;;;;;;;;;;19.60;99.90;;;;;;5026462;28;19933;-67
2022/10/13 01:25:20;;;;;;;;;;;19.70;99.90;;;;;;5032154;28;20400;-66
2022/10/13 01:27:59;;;;;;;;;;;19.70;99.90;;;;;;5031992;28;19947;-67
2022/10/13 01:30:26;;;;;;;;;;;19.60;99.90;;;;;;5019471;28;19945;-66
2022/10/13 01:33:04;;;;;;;;;;;19.70;99.90;;;;;;5024107;28;20300;-68
2022/10/13 01:35:36;;;;;;;;;;;19.60;99.90;;;;;;5031295;28;19929;-66
2022/10/13 01:38:07;;;;;;;;;;;19.60;99.90;;;;;;5022427;28;19952;-67
2022/10/13 01:40:39;;;;;;;;;;;19.60;99.90;;;;;;5018353;28;20301;-65
2022/10/13 01:43:11;;;;;;;;;;;19.60;99.90;;;;;;5031549;28;19929;-68
2022/10/13 01:45:45;;;;;;;;;;;19.60;99.90;;;;;;5026886;28;19929;-67
2022/10/13 01:48:13;;;;;;;;;;;19.60;99.90;;;;;;5027939;28;20064;-68
2022/10/13 01:50:41;;;;;;;;;;;19.60;99.90;;;;;;5034166;28;19929;-68
2022/10/13 01:53:08;;;;;;;;;;;19.60;99.90;;;;;;5022314;28;19929;-66
2022/10/13 01:55:36;;;;;;;;;;;19.60;99.90;;;;;;5020635;28;19925;-67
2022/10/13 01:58:03;;;;;;;;;;;19.60;99.90;;;;;;5026325;28;19930;-67
2022/10/13 02:00:35;;;;;;;;;;;19.60;99.90;;;;;;5023565;28;19932;-68
2022/10/13 02:03:10;;;;;;;;;;;19.60;99.90;;;;;;5040241;28;19929;-68
2022/10/13 02:05:37;;;;;;;;;;;19.60;99.90;;;;;;5016688;28;19929;-68
2022/10/13 02:08:08;;;;;;;;;;;19.60;99.90;;;;;;5028241;28;19936;-67
2022/10/13 02:10:41;;;;;;;;;;;19.60;99.90;;;;;;5045381;28;19929;-67
2022/10/13 02:13:10;;;;;;;;;;;19.60;99.90;;;;;;5021192;28;19925;-68
2022/10/13 02:15:40;;;;;;;;;;;19.60;99.90;;;;;;5022288;28;19933;-67
2022/10/13 02:18:08;;;;;;;;;;;19.60;99.90;;;;;;5028803;28;19933;-67
2022/10/13 02:20:35;;;;;;;;;;;19.50;99.90;;;;;;5042060;28;19929;-66
2022/10/13 02:23:06;;;;;;;;;;;19.60;99.90;;;;;;5030846;28;19936;-66
2022/10/13 02:25:34;;;;;;;;;;;19.60;99.90;;;;;;5028031;28;20400;-68
2022/10/13 02:28:02;;;;;;;;;;;19.50;99.90;;;;;;5015394;28;19929;-68
2022/10/13 02:30:32;;;;;;;;;;;19.50;99.90;;;;;;5030957;28;20395;-67
2022/10/13 02:32:59;;;;;;;;;;;19.50;99.90;;;;;;5027911;28;19929;-67
2022/10/13 02:35:27;;;;;;;;;;;19.50;99.90;;;;;;5016951;28;19936;-68
2022/10/13 02:37:54;;;;;;;;;;;19.50;99.90;;;;;;5023343;28;19944;-68
2022/10/13 02:40:21;;;;;;;;;;;19.50;99.90;;;;;;5029175;28;19929;-67
2022/10/13 02:42:49;;;;;;;;;;;19.50;99.90;;;;;;5026127;28;19933;-66
2022/10/13 02:45:16;;;;;;;;;;;19.50;99.90;;;;;;5012320;28;19929;-68
2022/10/13 02:47:43;;;;;;;;;;;19.50;99.90;;;;;;5027259;28;19926;-66
2022/10/13 02:50:10;;;;;;;;;;;19.50;99.90;;;;;;5025738;28;19925;-66
2022/10/13 02:52:37;;;;;;;;;;;19.40;99.90;;;;;;5015976;28;19939;-67
2022/10/13 02:55:04;;;;;;;;;;;19.50;99.90;;;;;;5006553;28;20507;-65
2022/10/13 02:57:32;;;;;;;;;;;19.50;99.90;;;;;;5038002;28;19929;-66
2022/10/13 02:59:59;;;;;;;;;;;19.50;99.90;;;;;;5039501;28;19936;-68
2022/10/13 03:02:29;;;;;;;;;;;19.40;99.90;;;;;;5036328;28;19928;-69
2022/10/13 03:04:56;;;;;;;;;;;19.40;99.90;;;;;;5021358;28;19936;-67
2022/10/13 03:07:23;;;;;;;;;;;19.40;99.90;;;;;;5032837;28;19936;-66
2022/10/13 03:09:50;;;;;;;;;;;19.40;99.90;;;;;;5033790;28;19936;-68
2022/10/13 03:12:17;;;;;;;;;;;19.40;99.90;;;;;;5024896;28;20005;-67
2022/10/13 03:14:45;;;;;;;;;;;19.40;99.90;;;;;;5030314;28;19933;-68
2022/10/13 03:17:12;;;;;;;;;;;19.40;99.90;;;;;;5026502;28;19925;-68
2022/10/13 03:19:39;;;;;;;;;;;19.40;99.90;;;;;;5027335;28;19924;-68
2022/10/13 03:22:13;;;;;;;;;;;19.40;99.90;;;;;;5033323;28;19929;-67
2022/10/13 03:24:40;;;;;;;;;;;19.40;99.90;;;;;;5037917;28;19924;-67
2022/10/13 03:27:08;;;;;;;;;;;19.40;99.90;;;;;;5042993;28;20400;-67
2022/10/13 03:29:35;;;;;;;;;;;19.40;99.90;;;;;;5033566;28;19929;-68
2022/10/13 03:32:02;;;;;;;;;;;19.40;99.90;;;;;;5027759;28;19937;-67
2022/10/13 03:34:29;;;;;;;;;;;19.40;99.90;;;;;;5025490;28;19936;-66
2022/10/13 03:36:57;;;;;;;;;;;19.40;99.90;;;;;;5031942;28;19930;-67
2022/10/13 03:39:24;;;;;;;;;;;19.40;99.90;;;;;;5020323;28;19925;-67
2022/10/13 03:41:51;;;;;;;;;;;19.30;99.90;;;;;;5035665;28;20339;-67
2022/10/13 03:44:18;;;;;;;;;;;19.40;99.90;;;;;;5021108;28;19952;-67
2022/10/13 03:46:45;;;;;;;;;;;19.30;99.90;;;;;;5020221;28;19929;-67
2022/10/13 03:49:12;;;;;;;;;;;19.40;99.90;;;;;;5024437;28;20320;-68
2022/10/13 03:51:40;;;;;;;;;;;19.30;99.90;;;;;;5030278;28;20384;-67
2022/10/13 03:54:09;;;;;;;;;;;19.40;99.90;;;;;;5020892;28;19925;-67
2022/10/13 03:56:36;;;;;;;;;;;19.40;99.90;;;;;;5024440;28;20425;-68
2022/10/13 03:59:03;;;;;;;;;;;19.40;99.90;;;;;;5023017;28;19956;-67
2022/10/13 04:01:31;;;;;;;;;;;19.50;99.90;;;;;;5034122;28;19929;-69
2022/10/13 04:04:01;;;;;;;;;;;19.60;99.90;;;;;;5042218;28;19939;-67
2022/10/13 04:06:28;;;;;;;;;;;19.60;99.90;;;;;;5032547;28;20304;-69
2022/10/13 04:08:55;;;;;;;;;;;19.70;99.90;;;;;;5026721;28;19925;-68
2022/10/13 04:11:22;;;;;;;;;;;19.70;99.90;;;;;;5031958;28;20476;-67
2022/10/13 04:13:50;;;;;;;;;;;19.80;99.90;;;;;;5022514;28;19933;-70
2022/10/13 04:16:18;;;;;;;;;;;19.80;99.90;;;;;;5022286;28;19933;-68
2022/10/13 04:18:49;;;;;;;;;;;19.90;99.90;;;;;;5031326;28;19951;-68
2022/10/13 04:21:16;;;;;;;;;;;19.90;99.90;;;;;;5030483;28;19936;-68
2022/10/13 04:23:43;;;;;;;;;;;19.90;99.90;;;;;;5036740;28;19944;-67
2022/10/13 04:26:15;;;;;;;;;;;19.90;99.90;;;;;;5032747;28;19953;-66
2022/10/13 04:28:43;;;;;;;;;;;19.90;99.90;;;;;;5031749;28;19940;-66
2022/10/13 04:31:10;;;;;;;;;;;19.90;99.90;;;;;;5030695;28;19925;-66
2022/10/13 04:33:37;;;;;;;;;;;19.90;99.90;;;;;;5025112;28;19935;-66
2022/10/13 04:36:05;;;;;;;;;;;19.90;99.90;;;;;;5028044;28;20313;-69
2022/10/13 04:38:33;;;;;;;;;;;19.90;99.90;;;;;;5034225;28;19925;-67
2022/10/13 04:41:03;;;;;;;;;;;19.90;99.90;;;;;;5021606;28;20216;-68
2022/10/13 04:43:31;;;;;;;;;;;19.90;99.90;;;;;;5029176;28;19936;-68
2022/10/13 04:46:09;;;;;;;;;;;19.90;99.90;;;;;;5023870;28;19944;-66
2022/10/13 04:48:36;;;;;;;;;;;19.90;99.90;;;;;;5020754;28;19929;-67
2022/10/13 04:51:05;;;;;;;;;;;19.90;99.90;;;;;;5024769;28;19925;-65
2022/10/13 04:53:32;;;;;;;;;;;19.80;99.90;;;;;;5024310;28;19929;-67
2022/10/13 04:56:00;;;;;;;;;;;19.80;99.90;;;;;;5027073;28;19932;-68
2022/10/13 04:58:27;;;;;;;;;;;19.80;99.90;;;;;;5022505;28;19925;-68
2022/10/13 05:00:54;;;;;;;;;;;19.80;99.90;;;;;;5023276;28;19929;-67
2022/10/13 05:03:22;;;;;;;;;;;19.80;99.90;;;;;;5025437;28;19940;-69
2022/10/13 05:05:49;;;;;;;;;;;19.90;99.90;;;;;;5022719;28;19947;-65
2022/10/13 05:08:16;;;;;;;;;;;20.00;99.90;;;;;;5023951;28;19929;-65
2022/10/13 05:10:51;;;;;;;;;;;20.10;99.90;;;;;;5025597;28;19956;-67
2022/10/13 05:13:18;;;;;;;;;;;20.30;99.90;;;;;;5021564;28;19929;-66
2022/10/13 05:15:48;;;;;;;;;;;20.50;99.90;;;;;;5031473;28;19925;-67
2022/10/13 05:18:17;;;;;;;;;;;20.60;99.90;;;;;;5025563;28;19955;-68
2022/10/13 05:20:45;;;;;;;;;;;20.80;99.90;;;;;;5023405;28;20348;-69
2022/10/13 05:23:13;;;;;;;;;;;20.90;99.90;;;;;;5023055;28;20444;-67
2022/10/13 05:25:40;;;;;;;;;;;21.00;99.90;;;;;;5027171;28;19932;-70
2022/10/13 05:28:11;;;;;;;;;;;21.00;99.90;;;;;;5033277;28;19933;-70
2022/10/13 05:30:39;;;;;;;;;;;21.10;99.90;;;;;;5043122;28;19940;-69
2022/10/13 05:33:06;;;;;;;;;;;21.10;99.90;;;;;;5030463;28;19929;-68
2022/10/13 05:35:33;;;;;;;;;;;21.10;99.90;;;;;;5027090;28;19925;-67
2022/10/13 05:38:00;;;;;;;;;;;21.10;99.90;;;;;;5016754;28;19929;-66
2022/10/13 05:40:28;;;;;;;;;;;21.10;99.90;;;;;;5029191;28;19936;-69
2022/10/13 05:42:59;;;;;;;;;;;21.10;99.90;;;;;;5022074;28;20387;-65
2022/10/13 05:45:28;;;;;;;;;;;21.10;99.90;;;;;;5029802;28;20388;-64
2022/10/13 05:47:55;;;;;;;;;;;21.10;99.90;;;;;;5019239;28;19936;-67
2022/10/13 05:50:22;;;;;;;;;;;21.10;99.90;;;;;;5035166;28;19940;-65
2022/10/13 05:52:50;;;;;;;;;;;21.10;99.90;;;;;;5033526;28;20404;-66
2022/10/13 05:55:17;;;;;;;;;;;21.10;99.90;;;;;;5026342;28;19937;-64
2022/10/13 05:57:48;;;;;;;;;;;21.10;99.90;;;;;;5022151;28;19925;-66
2022/10/13 06:00:17;;;;;;;;;;;21.00;99.90;;;;;;5024377;28;19960;-65
2022/10/13 06:02:56;;;;;;;;;;;21.00;99.90;;;;;;5031134;28;20278;-67
2022/10/13 06:05:25;;;;;;;;;;;21.00;99.90;;;;;;5032031;28;20432;-64
2022/10/13 06:07:55;;;;;;;;;;;21.00;99.90;;;;;;5018453;28;19932;-66
2022/10/13 06:10:22;;;;;;;;;;;20.90;99.90;;;;;;5023533;28;19933;-68
2022/10/13 06:12:49;;;;;;;;;;;20.90;99.90;;;;;;5026129;28;20415;-65
2022/10/13 06:15:16;;;;;;;;;;;20.90;99.90;;;;;;5025142;28;20385;-65
2022/10/13 06:17:43;;;;;;;;;;;20.90;99.90;;;;;;5021733;28;21247;-66
2022/10/13 06:20:11;;;;;;;;;;;20.90;99.90;;;;;;5026855;28;19984;-66
2022/10/13 06:22:38;;;;;;;;;;;20.90;99.90;;;;;;5024301;28;19933;-65
2022/10/13 06:25:06;;;;;;;;;;;20.90;99.90;;;;;;5020661;28;19929;-65
2022/10/13 06:27:33;;;;;;;;;;;21.00;99.90;;;;;;5017602;28;20396;-66
2022/10/13 06:30:00;;;;;;;;;;;21.00;99.90;;;;;;5018738;28;19933;-65
2022/10/13 06:32:27;;;;;;;;;;;20.90;99.90;;;;;;5021143;28;19926;-68
2022/10/13 06:34:54;;;;;;;;;;;20.90;99.90;;;;;;5020938;28;19940;-66
2022/10/13 06:37:21;;;;;;;;;;;20.80;99.90;;;;;;5019542;28;19929;-65
2022/10/13 06:39:53;;;;;;;;;;;20.80;99.90;;;;;;5023397;28;19936;-67
2022/10/13 06:42:20;;;;;;;;;;;20.70;99.90;;;;;;5025334;28;19933;-66
2022/10/13 06:45:07;;;;;;;;;;;20.70;99.90;;;;;;5021589;28;19929;-65
2022/10/13 06:47:34;;;;;;;;;;;20.70;99.90;;;;;;5025730;28;20153;-67
2022/10/13 06:50:01;;;;;;;;;;;20.70;99.90;;;;;;5030175;28;19929;-68
2022/10/13 06:52:28;;;;;;;;;;;20.70;99.90;;;;;;5026817;28;20311;-69
2022/10/13 06:54:55;;;;;;;;;;;20.70;99.90;;;;;;5022570;28;19925;-68
2022/10/13 06:57:24;;;;;;;;;;;20.70;99.90;;;;;;5021910;28;20477;-68
2022/10/13 06:59:51;;;;;;;;;;;20.60;99.90;;;;;;5026069;28;20467;-67
2022/10/13 07:02:19;;;;;;;;;;;20.50;99.90;;;;;;5024990;28;19929;-67
2022/10/13 07:04:46;;;;;;;;;;;20.40;99.90;;;;;;5021858;28;20682;-65
2022/10/13 07:07:13;;;;;;;;;;;20.40;99.90;;;;;;5024168;28;19941;-70
2022/10/13 07:09:41;;;;;;;;;;;20.30;99.90;;;;;;5022013;28;19960;-67
2022/10/13 07:12:08;;;;;;;;;;;20.20;99.90;;;;;;5025278;28;20336;-67
2022/10/13 07:14:35;;;;;;;;;;;20.20;99.90;;;;;;5030485;28;19925;-67
2022/10/13 07:17:07;;;;;;;;;;;20.20;99.90;;;;;;5021081;28;20360;-65
2022/10/13 07:19:34;;;;;;;;;;;20.20;99.90;;;;;;5034343;28;19933;-65
2022/10/13 07:22:02;;;;;;;;;;;20.30;99.90;;;;;;5020819;28;19937;-67
2022/10/13 07:24:29;;;;;;;;;;;20.20;99.90;;;;;;5019517;28;19940;-66
2022/10/13 07:26:56;;;;;;;;;;;20.20;99.90;;;;;;5022530;28;19929;-66
2022/10/13 07:29:23;;;;;;;;;;;20.20;99.90;;;;;;5023149;28;20293;-67
2022/10/13 07:31:50;;;;;;;;;;;20.20;99.90;;;;;;5024532;28;20352;-67
2022/10/13 07:34:17;;;;;;;;;;;20.20;99.90;;;;;;5046450;28;19932;-67
2022/10/13 07:36:45;;;;;;;;;;;20.30;99.90;;;;;;5038464;28;20415;-68
2022/10/13 07:39:12;;;;;;;;;;;20.30;99.90;;;;;;5035501;28;19969;-67
2022/10/13 07:41:40;;;;;;;;;;;20.30;99.90;;;;;;5027591;28;19926;-62
2022/10/13 07:44:07;;;;;;;;;;;20.30;99.90;;;;;;5034586;28;19929;-62
2022/10/13 07:46:34;;;;;;;;;;;20.30;99.90;;;;;;5028871;28;19925;-64
2022/10/13 07:49:01;;;;;;;;;;;20.30;99.90;;;;;;5022242;28;19940;-64
2022/10/13 07:51:28;;;;;;;;;;;20.30;99.90;;;;;;5035563;28;19933;-65
2022/10/13 07:53:55;;;;;;;;;;;20.30;99.90;;;;;;5030219;28;20313;-66
2022/10/13 07:56:22;;;;;;;;;;;20.20;99.90;;;;;;5027808;28;19933;-66
2022/10/13 07:58:49;;;;;;;;;;;20.30;99.90;;;;;;5050080;28;19924;-68
2022/10/13 08:01:16;;;;;;;;;;;20.30;99.90;;;;;;5013443;28;20267;-67
2022/10/13 08:03:43;;;;;;;;;;;20.30;99.90;;;;;;5031301;28;19932;-69
2022/10/13 08:06:17;;;;;;;;;;;20.20;99.90;;;;;;5035423;28;19929;-69
2022/10/13 08:08:44;;;;;;;;;;;20.20;99.90;;;;;;5027363;28;19926;-64
2022/10/13 08:11:16;;;;;;;;;;;20.30;99.90;;;;;;5042802;28;19928;-67
2022/10/13 08:13:47;;;;;;;;;;;20.20;99.90;;;;;;5038662;28;19929;-68
2022/10/13 08:16:19;;;;;;;;;;;20.20;99.90;;;;;;5029492;28;20321;-67
2022/10/13 08:18:46;;;;;;;;;;;20.20;99.90;;;;;;5040693;28;19929;-67
2022/10/13 08:21:16;;;;;;;;;;;20.30;99.90;;;;;;5029274;28;19929;-67
2022/10/13 08:24:04;;;;;;;;;;;20.20;99.90;;;;;;5037003;28;19925;-67
2022/10/13 08:26:31;;;;;;;;;;;20.30;99.90;;;;;;5027219;28;19933;-69
2022/10/13 08:28:58;;;;;;;;;;;20.30;99.90;;;;;;5034146;28;19925;-67
2022/10/13 08:31:45;;;;;;;;;;;20.30;99.90;;;;;;5036316;28;19933;-67
2022/10/13 08:34:13;;;;;;;;;;;20.30;99.90;;;;;;5022712;28;19925;-66
2022/10/13 08:36:40;;;;;;;;;;;20.30;99.90;;;;;;5037090;28;19943;-64
2022/10/13 08:39:07;;;;;;;;;;;20.30;99.90;;;;;;5025758;28;19929;-63
2022/10/13 08:41:39;;;;;;;;;;;20.30;99.90;;;;;;5025166;28;19925;-64
2022/10/13 08:44:14;;;;;;;;;;;20.30;99.90;;;;;;5039465;28;19929;-65
2022/10/13 08:47:14;;;;;;;;;;;20.30;99.90;;;;;;5025254;28;19957;-65
2022/10/13 08:49:42;;;;;;;;;;;20.30;99.90;;;;;;5029303;28;19940;-66
2022/10/13 08:52:15;;;;;;;;;;;20.30;99.90;;;;;;5035399;28;19934;-65
2022/10/13 08:54:42;;;;;;;;;;;20.30;99.90;;;;;;5028929;28;19926;-64
2022/10/13 08:57:09;;;;;;;;;;;20.30;99.90;;;;;;5036005;28;19948;-65
2022/10/13 08:59:37;;;;;;;;;;;20.30;99.90;;;;;;5027038;28;19935;-67
2022/10/13 09:02:12;;;;;;;;;;;20.30;99.90;;;;;;5040644;28;20349;-65
2022/10/13 09:04:41;;;;;;;;;;;20.30;99.90;;;;;;5024690;28;19932;-63
2022/10/13 09:07:08;;;;;;;;;;;20.30;99.90;;;;;;5037867;28;19944;-65
2022/10/13 09:09:36;;;;;;;;;;;20.30;99.90;;;;;;5022833;28;19929;-64
2022/10/13 09:12:03;;;;;;;;;;;20.20;99.90;;;;;;5028914;28;19929;-66
2022/10/13 09:14:35;;;;;;;;;;;20.20;99.90;;;;;;5030517;28;19932;-64
2022/10/13 09:17:13;;;;;;;;;;;20.20;99.90;;;;;;5029475;28;20408;-64
2022/10/13 09:19:56;;;;;;;;;;;20.20;99.90;;;;;;5021199;28;19925;-64
2022/10/13 09:22:30;;;;;;;;;;;20.10;99.90;;;;;;5023961;28;19933;-62
2022/10/13 09:25:06;;;;;;;;;;;20.10;99.90;;;;;;5025159;28;19944;-62
2022/10/13 09:27:42;;;;;;;;;;;20.00;99.90;;;;;;5031130;28;19924;-67
2022/10/13 09:30:25;;;;;;;;;;;20.00;99.90;;;;;;5030919;28;19925;-67
2022/10/13 09:33:12;;;;;;;;;;;20.10;99.90;;;;;;5030869;28;19925;-66
2022/10/13 09:35:40;;;;;;;;;;;20.10;99.90;;;;;;5025505;28;19933;-67
2022/10/13 09:38:13;;;;;;;;;;;20.20;99.90;;;;;;5023601;28;20310;-64
2022/10/13 09:40:42;;;;;;;;;;;20.20;99.90;;;;;;5028134;28;19933;-64
2022/10/13 09:43:28;;;;;;;;;;;20.20;99.90;;;;;;5035620;28;19929;-64
2022/10/13 09:45:55;;;;;;;;;;;20.30;99.90;;;;;;5032204;28;19926;-69
2022/10/13 09:48:24;;;;;;;;;;;20.30;99.90;;;;;;5047449;28;19940;-70
2022/10/13 09:50:53;;;;;;;;;;;20.30;99.90;;;;;;5031678;28;19941;-66
2022/10/13 09:53:31;;;;;;;;;;;20.20;99.90;;;;;;5028015;28;20413;-67
2022/10/13 09:56:14;;;;;;;;;;;20.20;99.90;;;;;;5027055;28;20396;-66
2022/10/13 09:58:44;;;;;;;;;;;20.20;99.90;;;;;;5020840;28;20732;-66
2022/10/13 10:01:17;;;;;;;;;;;20.10;99.90;;;;;;5031110;28;20409;-67
2022/10/13 10:03:45;;;;;;;;;;;20.20;99.90;;;;;;5036555;28;19925;-68
2022/10/13 10:06:14;;;;;;;;;;;20.20;99.90;;;;;;5023914;28;19929;-65
2022/10/13 10:08:50;;;;;;;;;;;20.20;99.90;;;;;;5026658;28;19933;-66
2022/10/13 10:11:33;;;;;;;;;;;20.20;99.90;;;;;;5026290;28;19929;-65
2022/10/13 10:14:08;;;;;;;;;;;20.20;99.90;;;;;;5028397;28;19929;-66
2022/10/13 10:16:39;;;;;;;;;;;20.20;99.90;;;;;;5022513;28;19932;-65
2022/10/13 10:19:27;;;;;;;;;;;20.20;99.90;;;;;;5046677;28;20331;-65
2022/10/13 10:22:09;;;;;;;;;;;20.20;99.90;;;;;;5015627;28;20031;-65
2022/10/13 10:24:42;;;;;;;;;;;20.30;99.90;;;;;;5023435;28;19929;-66
2022/10/13 10:27:13;;;;;;;;;;;20.30;99.90;;;;;;5024481;28;20365;-67
2022/10/13 10:29:40;;;;;;;;;;;20.30;99.90;;;;;;5022057;28;19937;-68
2022/10/13 10:32:17;;;;;;;;;;;20.20;99.90;;;;;;5025312;28;19929;-66
2022/10/13 10:34:58;;;;;;;;;;;20.20;99.90;;;;;;5026184;28;19925;-68
2022/10/13 10:37:36;;;;;;;;;;;20.20;99.90;;;;;;5032506;28;19940;-68
2022/10/13 10:40:12;;;;;;;;;;;20.20;99.90;;;;;;5016282;28;19925;-68
2022/10/13 10:42:45;;;;;;;;;;;20.20;99.90;;;;;;5020104;28;19926;-68
2022/10/13 10:45:25;;;;;;;;;;;20.20;99.90;;;;;;5032062;28;19925;-69
2022/10/13 10:47:55;;;;;;;;;;;20.20;99.90;;;;;;5021689;28;19930;-67
2022/10/13 10:50:23;;;;;;;;;;;20.20;99.90;;;;;;5027517;28;19944;-67
2022/10/13 10:53:08;;;;;;;;;;;20.20;99.90;;;;;;5027090;28;19929;-68
2022/10/13 10:55:42;;;;;;;;;;;20.20;99.90;;;;;;5026365;28;19929;-67
2022/10/13 10:58:11;;;;;;;;;;;20.30;99.90;;;;;;5016048;28;19926;-64
2022/10/13 11:00:43;;;;;;;;;;;20.30;99.90;;;;;;5031224;28;19933;-66
2022/10/13 11:03:18;;;;;;;;;;;20.30;99.90;;;;;;5026584;28;19925;-68
2022/10/13 11:06:04;;;;;;;;;;;20.20;99.90;;;;;;5021007;28;19932;-68
2022/10/13 11:08:40;;;;;;;;;;;20.20;99.90;;;;;;5024449;28;20419;-70
2022/10/13 11:11:19;;;;;;;;;;;20.20;99.90;;;;;;5035328;28;20285;-69
2022/10/13 11:13:54;;;;;;;;;;;20.30;99.90;;;;;;5026856;28;19936;-70
2022/10/13 11:16:29;;;;;;;;;;;20.30;99.90;;;;;;5024594;28;19929;-70
2022/10/13 11:18:58;;;;;;;;;;;20.30;99.90;;;;;;5020227;28;19929;-70
2022/10/13 11:21:46;;;;;;;;;;;20.40;99.90;;;;;;5023073;28;19929;-69
2022/10/13 11:24:32;;;;;;;;;;;20.40;99.90;;;;;;5026760;28;19929;-68
2022/10/13 11:27:11;;;;;;;;;;;20.50;99.90;;;;;;5026282;28;19929;-68
2022/10/13 11:29:45;;;;;;;;;;;20.40;99.90;;;;;;5038185;28;19936;-68
2022/10/13 11:32:29;;;;;;;;;;;20.40;99.90;;;;;;5027746;28;19944;-73
2022/10/13 11:35:08;;;;;;;;;;;20.40;99.90;;;;;;5019062;28;19929;-71
2022/10/13 11:37:37;;;;;;;;;;;20.50;99.90;;;;;;5030876;28;19929;-65
2022/10/13 11:40:14;;;;;;;;;;;20.40;99.90;;;;;;5020727;28;19936;-70
2022/10/13 11:43:02;;;;;;;;;;;20.50;99.90;;;;;;5025707;28;19935;-68
2022/10/13 11:45:37;;;;;;;;;;;20.40;99.90;;;;;;5023708;28;20009;-68
2022/10/13 11:48:04;;;;;;;;;;;20.40;99.90;;;;;;5025979;28;19932;-68
2022/10/13 11:50:31;;;;;;;;;;;20.60;99.90;;;;;;5023124;28;20297;-67
2022/10/13 11:53:13;;;;;;;;;;;20.60;99.90;;;;;;5024027;28;20284;-67
2022/10/13 11:55:49;;;;;;;;;;;20.50;99.90;;;;;;5027796;28;19925;-68
2022/10/13 11:58:23;;;;;;;;;;;20.50;99.90;;;;;;5027346;28;19933;-69
2022/10/13 12:00:51;;;;;;;;;;;20.50;99.90;;;;;;5024441;28;20316;-69
2022/10/13 12:03:20;;;;;;;;;;;20.50;99.90;;;;;;5024298;28;19929;-68
2022/10/13 12:05:48;;;;;;;;;;;20.40;99.90;;;;;;5025217;28;19934;-70
2022/10/13 12:08:15;;;;;;;;;;;20.40;99.90;;;;;;5024445;28;19941;-68
2022/10/13 12:10:42;;;;;;;;;;;20.40;99.90;;;;;;5023545;28;19941;-70
2022/10/13 12:13:23;;;;;;;;;;;20.20;99.90;;;;;;5020943;28;20312;-68
2022/10/13 12:16:02;;;;;;;;;;;20.20;99.90;;;;;;5028139;28;19929;-69
2022/10/13 12:18:32;;;;;;;;;;;20.10;99.90;;;;;;5017349;28;19940;-68
2022/10/13 12:21:09;;;;;;;;;;;20.10;99.90;;;;;;5018485;28;19929;-69
2022/10/13 12:23:37;;;;;;;;;;;20.10;99.90;;;;;;5049532;28;19945;-68
2022/10/13 12:26:04;;;;;;;;;;;20.10;99.90;;;;;;5041471;28;19932;-70
2022/10/13 12:28:50;;;;;;;;;;;20.10;99.90;;;;;;5027646;28;19937;-69
2022/10/13 12:31:22;;;;;;;;;;;20.00;99.90;;;;;;5030139;28;20022;-68
2022/10/13 12:33:55;;;;;;;;;;;20.10;99.90;;;;;;5013435;28;20409;-69
2022/10/13 12:36:28;;;;;;;;;;;20.10;99.90;;;;;;5020280;28;19934;-69
2022/10/13 12:39:01;;;;;;;;;;;20.00;99.90;;;;;;5029411;28;19928;-70
2022/10/13 12:41:37;;;;;;;;;;;20.00;99.90;;;;;;5019773;28;19936;-69
2022/10/13 12:44:06;;;;;;;;;;;20.00;99.90;;;;;;5034683;28;20279;-68
2022/10/13 12:46:36;;;;;;;;;;;20.00;99.90;;;;;;5024132;28;19929;-70
2022/10/13 12:49:04;;;;;;;;;;;20.00;99.90;;;;;;5023495;28;19936;-70
2022/10/13 12:51:33;;;;;;;;;;;20.00;99.90;;;;;;5023466;28;19929;-70
2022/10/13 12:54:05;;;;;;;;;;;20.00;99.90;;;;;;5020809;28;19925;-69
2022/10/13 12:56:32;;;;;;;;;;;20.00;99.90;;;;;;5034469;28;20316;-70
2022/10/13 12:58:59;;;;;;;;;;;20.00;99.90;;;;;;5030940;28;20405;-68
2022/10/13 13:01:26;;;;;;;;;;;20.10;99.90;;;;;;5021952;28;19974;-69
2022/10/13 13:03:56;;;;;;;;;;;20.10;99.90;;;;;;5027969;28;19926;-68
2022/10/13 13:06:27;;;;;;;;;;;20.10;99.90;;;;;;5028526;28;19935;-68
2022/10/13 13:09:13;;;;;;;;;;;20.10;99.90;;;;;;5024497;28;19925;-69
2022/10/13 13:11:40;;;;;;;;;;;20.20;99.90;;;;;;5026194;28;19925;-69
2022/10/13 13:14:29;;;;;;;;;;;20.30;99.90;;;;;;5021140;28;20302;-70
2022/10/13 13:17:08;;;;;;;;;;;20.30;99.90;;;;;;5022052;28;20316;-71
2022/10/13 13:19:35;;;;;;;;;;;20.40;99.90;;;;;;5019668;28;19929;-70
2022/10/13 13:22:04;;;;;;;;;;;20.50;99.90;;;;;;5022502;28;19934;-68
2022/10/13 13:24:32;;;;;;;;;;;20.50;99.90;;;;;;5022850;28;19944;-70
2022/10/13 13:27:34;;;;;;;;;;;20.50;99.90;;;;;;5031633;28;19929;-70
2022/10/13 13:30:01;;;;;;;;;;;20.60;99.90;;;;;;5030153;28;19930;-70
2022/10/13 13:32:29;;;;;;;;;;;20.60;99.90;;;;;;5011381;28;20392;-70
2022/10/13 13:34:57;;;;;;;;;;;20.60;99.90;;;;;;5029881;28;19933;-70
2022/10/13 13:37:26;;;;;;;;;;;20.70;99.90;;;;;;5030226;28;19925;-70
2022/10/13 13:39:54;;;;;;;;;;;20.70;99.90;;;;;;5032637;28;19925;-70
2022/10/13 13:42:21;;;;;;;;;;;20.70;99.90;;;;;;5020968;28;19925;-69
2022/10/13 13:44:48;;;;;;;;;;;20.60;99.90;;;;;;5028069;28;20416;-69
2022/10/13 13:47:20;;;;;;;;;;;20.60;99.90;;;;;;5018392;28;19932;-68
2022/10/13 13:49:48;;;;;;;;;;;20.60;99.90;;;;;;5021560;28;20257;-68
2022/10/13 13:52:16;;;;;;;;;;;20.70;99.90;;;;;;5020836;28;19949;-68
2022/10/13 13:54:44;;;;;;;;;;;20.60;99.90;;;;;;5022570;28;19952;-68
2022/10/13 13:57:12;;;;;;;;;;;20.60;99.90;;;;;;5036660;28;20523;-68
2022/10/13 13:59:39;;;;;;;;;;;20.60;99.90;;;;;;5025744;28;19945;-69
2022/10/13 14:02:11;;;;;;;;;;;20.60;99.90;;;;;;5024255;28;19930;-69
2022/10/13 14:04:39;;;;;;;;;;;20.60;99.90;;;;;;5032660;28;19932;-71
2022/10/13 14:07:06;;;;;;;;;;;20.60;99.90;;;;;;5027996;28;19929;-70
2022/10/13 14:09:33;;;;;;;;;;;20.60;99.90;;;;;;5017789;28;19952;-69
2022/10/13 14:12:00;;;;;;;;;;;20.60;99.90;;;;;;5028243;28;19925;-70
2022/10/13 14:14:31;;;;;;;;;;;20.60;99.90;;;;;;5038440;28;19933;-69
2022/10/13 14:16:59;;;;;;;;;;;20.60;99.90;;;;;;5025444;28;19925;-70
2022/10/13 14:19:26;;;;;;;;;;;20.60;99.90;;;;;;5024324;28;19930;-71
2022/10/13 14:21:53;;;;;;;;;;;20.60;99.90;;;;;;5023540;28;19929;-69
2022/10/13 14:24:20;;;;;;;;;;;20.60;99.90;;;;;;5028182;28;19928;-69
2022/10/13 14:26:47;;;;;;;;;;;20.60;99.90;;;;;;5029634;28;19943;-70
2022/10/13 14:29:14;;;;;;;;;;;20.60;99.90;;;;;;5024794;28;19929;-66
2022/10/13 14:31:41;;;;;;;;;;;20.60;99.90;;;;;;5032559;28;19936;-69
2022/10/13 14:34:08;;;;;;;;;;;20.60;99.90;;;;;;5031311;28;19936;-70